createdAt,value
2023-02-18T00:00:42.852Z,164.53
2023-02-18T00:03:20.263Z,157.90
2023-02-18T00:05:56.680Z,162.40
2023-02-18T00:08:33.028Z,161.90
2023-02-18T00:11:17.390Z,166.07
2023-02-18T00:13:57.235Z,153.10
2023-02-18T00:16:34.080Z,158.27
2023-02-18T00:19:12.839Z,164.40
2023-02-18T00:21:50.128Z,164.97
2023-02-18T00:24:26.360Z,174.80
2023-02-18T00:27:05.075Z,160.83
2023-02-18T00:29:41.486Z,165.10
2023-02-18T00:32:17.904Z,159.47
2023-02-18T00:34:54.126Z,165.90
2023-02-18T00:37:30.408Z,171.37
2023-02-18T00:40:06.455Z,161.80
2023-02-18T00:42:46.255Z,157.03
2023-02-18T00:45:23.269Z,170.40
2023-02-18T00:48:00.104Z,169.67
2023-02-18T00:50:39.657Z,160.27
2023-02-18T00:53:15.933Z,168.63
2023-02-18T00:55:53.084Z,158.60
2023-02-18T00:58:53.143Z,163.93
2023-02-18T01:01:30.243Z,167.17
2023-02-18T01:04:10.629Z,162.87
2023-02-18T01:06:47.159Z,158.37
2023-02-18T01:09:27.054Z,157.90
2023-02-18T01:12:03.376Z,160.83
2023-02-18T01:14:42.240Z,155.63
2023-02-18T01:17:18.964Z,152.37
2023-02-18T01:19:55.171Z,156.37
2023-02-18T01:22:31.742Z,147.50
2023-02-18T01:25:17.791Z,145.57
2023-02-18T01:27:53.909Z,144.73
2023-02-18T01:30:33.815Z,144.90
2023-02-18T01:33:11.454Z,144.43
2023-02-18T01:35:49.105Z,149.87
2023-02-18T01:38:25.866Z,143.57
2023-02-18T01:41:02.575Z,142.37
2023-02-18T01:43:43.703Z,143.90
2023-02-18T01:46:24.482Z,148.80
2023-02-18T01:49:07.839Z,150.67
2023-02-18T01:51:49.104Z,141.53
2023-02-18T01:54:31.927Z,145.70
2023-02-18T01:57:11.546Z,152.57
2023-02-18T01:59:54.966Z,146.10
2023-02-18T02:02:35.462Z,154.67
2023-02-18T02:05:14.096Z,146.47
2023-02-18T02:07:52.694Z,142.83
2023-02-18T02:10:30.951Z,146.73
2023-02-18T02:13:13.179Z,150.43
2023-02-18T02:15:55.549Z,143.67
2023-02-18T02:18:59.823Z,139.67
2023-02-18T02:22:16.254Z,148.60
2023-02-18T02:25:36.084Z,145.60
2023-02-18T02:28:55.780Z,146.97
2023-02-18T02:32:11.425Z,143.13
2023-02-18T02:35:01.198Z,135.13
2023-02-18T02:37:51.791Z,145.87
2023-02-18T02:40:34.745Z,139.93
2023-02-18T02:43:17.652Z,148.20
2023-02-18T02:46:00.424Z,139.27
2023-02-18T02:48:43.740Z,135.93
2023-02-18T02:51:27.223Z,135.43
2023-02-18T02:54:19.476Z,134.77
2023-02-18T02:56:55.723Z,134.57
2023-02-18T02:59:34.734Z,132.93
2023-02-18T03:02:29.592Z,134.13
2023-02-18T03:05:19.626Z,143.33
2023-02-18T03:08:09.862Z,140.77
2023-02-18T03:10:58.547Z,138.10
2023-02-18T03:13:52.370Z,136.37
2023-02-18T03:16:41.419Z,135.97
2023-02-18T03:19:25.837Z,140.23
2023-02-18T03:22:10.473Z,143.43
2023-02-18T03:25:05.547Z,132.50
2023-02-18T03:27:49.787Z,137.83
2023-02-18T03:30:33.402Z,144.00
2023-02-18T03:33:12.034Z,142.83
2023-02-18T03:36:10.081Z,145.63
2023-02-18T03:38:50.465Z,140.17
2023-02-18T03:41:29.041Z,145.60
2023-02-18T03:44:07.441Z,141.17
2023-02-18T03:46:45.284Z,139.23
2023-02-18T03:49:21.233Z,152.53
2023-02-18T03:51:56.954Z,143.90
2023-02-18T03:54:35.331Z,137.87
2023-02-18T03:57:17.943Z,137.93
2023-02-18T03:59:58.407Z,137.37
2023-02-18T04:02:34.778Z,142.83
2023-02-18T04:05:13.108Z,139.40
2023-02-18T04:07:49.806Z,139.83
2023-02-18T04:10:37.025Z,132.13
2023-02-18T04:13:19.447Z,131.80
2023-02-18T04:15:57.255Z,135.13
2023-02-18T04:18:37.103Z,124.70
2023-02-18T04:21:15.186Z,130.13
2023-02-18T04:23:59.937Z,127.63
2023-02-18T04:26:38.009Z,133.10
2023-02-18T04:29:28.718Z,119.07
2023-02-18T04:32:12.458Z,119.30
2023-02-18T04:34:50.276Z,114.60
2023-02-18T04:37:50.412Z,114.90
2023-02-18T04:40:28.500Z,115.40
2023-02-18T04:43:08.920Z,110.10
2023-02-18T04:45:50.946Z,112.83
2023-02-18T04:48:27.537Z,122.47
2023-02-18T04:51:05.079Z,119.83
2023-02-18T04:53:43.948Z,108.73
2023-02-18T04:56:24.122Z,110.43
2023-02-18T04:59:01.185Z,110.53
2023-02-18T05:01:45.606Z,106.97
2023-02-18T05:04:23.584Z,106.73
2023-02-18T05:07:04.332Z,114.83
2023-02-18T05:09:40.664Z,105.80
2023-02-18T05:12:18.323Z,101.93
2023-02-18T05:14:58.414Z,114.80
2023-02-18T05:17:37.361Z,110.70
2023-02-18T05:20:22.285Z,117.03
2023-02-18T05:22:58.452Z,112.17
2023-02-18T05:25:36.193Z,104.80
2023-02-18T05:28:15.582Z,97.93
2023-02-18T05:30:51.610Z,86.37
2023-02-18T05:33:29.967Z,107.43
2023-02-18T05:36:09.150Z,109.10
2023-02-18T05:38:46.112Z,108.50
2023-02-18T05:41:22.588Z,91.23
2023-02-18T05:44:16.128Z,87.70
2023-02-18T05:46:53.664Z,97.70
2023-02-18T05:49:33.022Z,94.83
2023-02-18T05:52:09.652Z,80.13
2023-02-18T05:54:46.507Z,86.77
2023-02-18T05:57:24.186Z,82.13
2023-02-18T06:00:03.497Z,92.50
2023-02-18T06:02:40.705Z,86.83
2023-02-18T06:05:23.168Z,85.60
2023-02-18T06:08:01.722Z,88.33
2023-02-18T06:10:37.879Z,102.23
2023-02-18T06:13:14.198Z,88.70
2023-02-18T06:15:53.145Z,92.73
2023-02-18T06:18:30.845Z,89.97
2023-02-18T06:21:37.346Z,84.53
2023-02-18T06:24:14.308Z,81.33
2023-02-18T06:26:56.881Z,70.47
2023-02-18T06:29:39.926Z,57.23
2023-02-18T06:32:19.989Z,60.80
2023-02-18T06:34:58.555Z,62.93
2023-02-18T06:37:42.168Z,60.10
2023-02-18T06:40:20.330Z,56.77
2023-02-18T06:42:56.640Z,62.10
2023-02-18T06:45:35.084Z,65.10
2023-02-18T06:48:11.413Z,61.30
2023-02-18T06:50:49.914Z,59.67
2023-02-18T06:53:29.086Z,67.53
2023-02-18T06:56:07.575Z,77.30
2023-02-18T06:58:45.344Z,76.40
2023-02-18T07:01:31.217Z,62.23
2023-02-18T07:04:13.390Z,66.73
2023-02-18T07:06:56.664Z,60.83
2023-02-18T07:09:36.135Z,58.77
2023-02-18T07:12:20.624Z,70.33
2023-02-18T07:14:59.288Z,64.27
2023-02-18T07:17:44.179Z,56.73
2023-02-18T07:20:20.867Z,58.37
2023-02-18T07:22:59.611Z,61.60
2023-02-18T07:25:39.690Z,57.60
2023-02-18T07:28:19.383Z,60.70
2023-02-18T07:30:56.942Z,60.17
2023-02-18T07:33:39.615Z,62.97
2023-02-18T07:36:23.204Z,63.90
2023-02-18T07:39:11.613Z,67.30
2023-02-18T07:42:02.070Z,62.90
2023-02-18T07:44:42.096Z,67.07
2023-02-18T07:47:24.330Z,61.90
2023-02-18T07:50:04.420Z,67.50
2023-02-18T07:52:42.248Z,66.03
2023-02-18T07:55:22.432Z,68.30
2023-02-18T07:58:13.880Z,67.50
2023-02-18T08:00:52.360Z,69.57
2023-02-18T08:03:30.716Z,68.00
2023-02-18T08:06:13.972Z,62.63
2023-02-18T08:08:53.673Z,62.23
2023-02-18T08:11:30.226Z,62.30
2023-02-18T08:14:12.760Z,66.73
2023-02-18T08:16:50.674Z,63.67
2023-02-18T08:19:30.125Z,68.83
2023-02-18T08:22:11.595Z,68.60
2023-02-18T08:24:48.507Z,66.83
2023-02-18T08:27:25.415Z,75.77
2023-02-18T08:30:04.251Z,61.33
2023-02-18T08:32:40.301Z,58.00
2023-02-18T08:35:17.566Z,63.53
2023-02-18T08:37:55.763Z,55.60
2023-02-18T08:40:32.534Z,65.80
2023-02-18T08:43:08.510Z,56.37
2023-02-18T08:45:47.988Z,58.10
2023-02-18T08:48:25.694Z,66.30
2023-02-18T08:51:03.996Z,64.87
2023-02-18T08:53:42.354Z,54.93
2023-02-18T08:56:20.551Z,54.47
2023-02-18T08:58:59.019Z,58.93
2023-02-18T09:01:38.470Z,63.33
2023-02-18T09:04:21.449Z,64.20
2023-02-18T09:06:57.585Z,62.03
2023-02-18T09:09:35.068Z,60.10
2023-02-18T09:12:13.886Z,64.27
2023-02-18T09:14:53.017Z,61.10
2023-02-18T09:17:35.496Z,52.80
2023-02-18T09:20:12.850Z,45.53
2023-02-18T09:23:01.318Z,51.47
2023-02-18T09:25:44.849Z,60.43
2023-02-18T09:28:20.948Z,60.17
2023-02-18T09:30:58.569Z,53.43
2023-02-18T09:33:41.080Z,53.47
2023-02-18T09:36:18.780Z,54.63
2023-02-18T09:38:55.309Z,61.27
2023-02-18T09:41:44.118Z,52.57
2023-02-18T09:44:27.880Z,54.30
2023-02-18T09:47:07.938Z,52.73
2023-02-18T09:49:55.871Z,50.80
2023-02-18T09:52:40.310Z,54.03
2023-02-18T09:55:35.115Z,62.90
2023-02-18T09:58:20.630Z,63.47
2023-02-18T10:01:03.643Z,60.33
2023-02-18T10:03:40.619Z,64.53
2023-02-18T10:06:42.866Z,58.73
2023-02-18T10:09:27.591Z,59.43
2023-02-18T10:12:07.960Z,60.80
2023-02-18T10:14:44.222Z,59.07
2023-02-18T10:17:25.203Z,61.53
2023-02-18T10:20:07.946Z,67.33
2023-02-18T10:22:49.685Z,66.43
2023-02-18T10:25:28.502Z,63.10
2023-02-18T10:28:05.817Z,65.37
2023-02-18T10:30:47.427Z,63.97
2023-02-18T10:33:37.726Z,65.07
2023-02-18T10:36:32.026Z,72.57
2023-02-18T10:39:45.627Z,67.90
2023-02-18T10:42:37.594Z,74.67
2023-02-18T10:45:25.984Z,62.00
2023-02-18T10:48:20.852Z,69.40
2023-02-18T10:51:00.634Z,71.10
2023-02-18T10:53:41.042Z,69.53
2023-02-18T10:56:40.867Z,70.97
2023-02-18T10:59:26.385Z,70.07
2023-02-18T11:02:05.930Z,70.77
2023-02-18T11:07:56.344Z,77.40
2023-02-18T11:10:38.239Z,68.70
2023-02-18T11:13:19.879Z,81.30
2023-02-18T11:16:06.766Z,75.73
2023-02-18T11:18:51.603Z,77.40
2023-02-18T11:21:36.799Z,72.93
2023-02-18T11:24:20.818Z,68.83
2023-02-18T11:26:59.178Z,75.20
2023-02-18T11:29:39.874Z,77.57
2023-02-18T11:32:20.611Z,70.90
2023-02-18T11:35:00.437Z,71.53
2023-02-18T11:37:44.158Z,68.03
2023-02-18T11:40:30.081Z,79.43
2023-02-18T11:43:19.010Z,73.47
2023-02-18T11:46:19.222Z,67.07
2023-02-18T11:49:01.441Z,67.80
2023-02-18T11:51:42.636Z,66.53
2023-02-18T11:54:40.045Z,81.37
2023-02-18T11:57:21.959Z,81.40
2023-02-18T12:00:02.324Z,78.67
2023-02-18T12:02:49.193Z,82.53
2023-02-18T12:05:33.626Z,74.80
2023-02-18T12:08:17.451Z,79.27
2023-02-18T12:10:56.214Z,80.30
2023-02-18T12:13:37.317Z,72.77
2023-02-18T12:16:26.926Z,73.10
2023-02-18T12:19:24.737Z,77.57
2023-02-18T12:22:09.900Z,78.93
2023-02-18T12:25:09.131Z,84.60
2023-02-18T12:27:57.149Z,86.43
2023-02-18T12:30:57.743Z,78.70
2023-02-18T12:33:46.967Z,78.93
2023-02-18T12:36:44.559Z,74.27
2023-02-18T12:39:36.044Z,75.60
2023-02-18T12:42:41.536Z,81.77
2023-02-18T12:45:38.296Z,84.97
2023-02-18T12:48:43.586Z,83.77
2023-02-18T12:51:43.036Z,80.83
2023-02-18T12:54:53.939Z,88.07
2023-02-18T12:58:05.383Z,89.03
2023-02-18T13:01:15.741Z,96.67
2023-02-18T13:04:21.503Z,85.20
2023-02-18T13:07:41.899Z,88.33
2023-02-18T13:10:48.774Z,99.60
2023-02-18T13:13:27.549Z,104.13
2023-02-18T13:16:15.642Z,104.23
2023-02-18T13:19:01.838Z,102.97
2023-02-18T13:21:48.080Z,97.17
2023-02-18T13:24:39.596Z,96.37
2023-02-18T13:27:27.060Z,101.67
2023-02-18T13:30:25.798Z,97.60
2023-02-18T13:33:38.865Z,97.47
2023-02-18T13:36:23.791Z,115.63
2023-02-18T13:39:08.272Z,98.23
2023-02-18T13:41:51.457Z,99.87
2023-02-18T13:45:24.655Z,99.40
2023-02-18T13:48:02.949Z,101.37
2023-02-18T13:50:51.743Z,102.87
2023-02-18T13:53:36.559Z,99.17
2023-02-18T13:56:22.673Z,102.87
2023-02-18T13:59:10.275Z,98.97
2023-02-18T14:01:51.981Z,98.50
2023-02-18T14:04:58.742Z,96.20
2023-02-18T14:08:14.178Z,94.93
2023-02-18T14:11:28.673Z,105.43
2023-02-18T14:14:41.036Z,92.23
2023-02-18T14:17:49.962Z,104.73
2023-02-18T14:20:56.763Z,95.37
2023-02-18T14:24:06.073Z,99.97
2023-02-18T14:26:57.696Z,107.57
2023-02-18T14:29:44.405Z,98.57
2023-02-18T14:32:32.456Z,92.03
2023-02-18T14:35:36.851Z,99.97
2023-02-18T14:39:00.889Z,102.03
2023-02-18T14:41:55.691Z,106.50
2023-02-18T14:44:53.632Z,101.53
2023-02-18T14:47:43.713Z,103.33
2023-02-18T14:50:24.295Z,93.97
2023-02-18T14:53:07.537Z,96.40
2023-02-18T14:55:49.818Z,92.97
2023-02-18T14:58:40.351Z,100.57
2023-02-18T15:01:27.464Z,102.40
2023-02-18T15:04:18.136Z,109.77
2023-02-18T15:07:11.350Z,97.27
2023-02-18T15:09:54.519Z,103.43
2023-02-18T15:12:31.314Z,93.97
2023-02-18T15:15:23.094Z,104.10
2023-02-18T15:18:11.958Z,98.07
2023-02-18T15:20:52.807Z,106.63
2023-02-18T15:23:29.853Z,100.90
2023-02-18T15:26:06.873Z,97.80
2023-02-18T15:29:02.284Z,107.90
2023-02-18T15:31:46.173Z,99.57
2023-02-18T15:34:47.886Z,100.17
2023-02-18T15:37:25.464Z,106.33
2023-02-18T15:40:12.900Z,93.37
2023-02-18T15:42:54.480Z,91.47
2023-02-18T15:45:35.170Z,100.40
2023-02-18T15:48:11.647Z,107.50
2023-02-18T15:51:08.139Z,108.50
2023-02-18T15:53:53.998Z,100.43
2023-02-18T15:56:56.430Z,105.83
2023-02-18T15:59:39.249Z,110.67
2023-02-18T16:02:24.281Z,120.13
2023-02-18T16:05:05.655Z,120.73
2023-02-18T16:07:59.946Z,121.53
2023-02-18T16:10:57.675Z,108.63
2023-02-18T16:13:36.299Z,136.10
2023-02-18T16:16:12.739Z,117.90
2023-02-18T16:18:49.768Z,123.33
2023-02-18T16:21:37.010Z,133.60
2023-02-18T16:24:42.251Z,109.27
2023-02-18T16:27:24.045Z,119.30
2023-02-18T16:30:03.025Z,109.30
2023-02-18T16:32:41.569Z,118.57
2023-02-18T16:35:48.933Z,100.27
2023-02-18T16:38:30.287Z,87.97
2023-02-18T16:41:08.962Z,61.50
2023-02-18T16:43:46.332Z,78.67
2023-02-18T16:46:24.405Z,63.63
2023-02-18T16:49:01.269Z,65.37
2023-02-18T16:51:42.482Z,55.70
2023-02-18T16:54:22.416Z,65.37
2023-02-18T16:57:02.023Z,59.67
2023-02-18T16:59:41.474Z,46.77
2023-02-18T17:02:26.197Z,49.93
2023-02-18T17:05:02.577Z,40.37
2023-02-18T17:07:38.925Z,42.30
2023-02-18T17:10:15.889Z,40.33
2023-02-18T17:12:58.374Z,42.60
2023-02-18T17:15:38.034Z,33.77
2023-02-18T17:18:17.832Z,38.67
2023-02-18T17:20:58.454Z,38.80
2023-02-18T17:23:34.263Z,30.83
2023-02-18T17:26:15.288Z,43.47
2023-02-18T17:28:53.785Z,34.77
2023-02-18T17:31:32.543Z,33.77
2023-02-18T17:34:15.277Z,28.57
2023-02-18T17:36:51.615Z,31.60
2023-02-18T17:39:28.678Z,28.60
2023-02-18T17:42:04.509Z,23.03
2023-02-18T17:44:43.132Z,35.77
2023-02-18T17:47:18.811Z,34.90
2023-02-18T17:49:55.145Z,31.97
2023-02-18T17:52:37.580Z,31.77
2023-02-18T17:55:21.912Z,31.03
2023-02-18T17:57:59.221Z,29.20
2023-02-18T18:00:40.174Z,28.23
2023-02-18T18:03:17.562Z,29.63
2023-02-18T18:05:59.310Z,31.07
2023-02-18T18:08:35.837Z,29.77
2023-02-18T18:11:16.528Z,28.10
2023-02-18T18:13:52.944Z,28.97
2023-02-18T18:16:34.454Z,30.40
2023-02-18T18:19:10.342Z,28.83
2023-02-18T18:21:48.405Z,29.57
2023-02-18T18:24:28.306Z,32.20
2023-02-18T18:27:04.687Z,31.20
2023-02-18T18:29:41.736Z,39.50
2023-02-18T18:32:19.745Z,26.93
2023-02-18T18:34:55.921Z,26.87
2023-02-18T18:37:31.888Z,30.33
2023-02-18T18:40:08.186Z,26.03
2023-02-18T18:42:43.288Z,28.43
2023-02-18T18:45:25.788Z,27.60
2023-02-18T18:48:03.654Z,28.47
2023-02-18T18:50:40.734Z,29.90
2023-02-18T18:53:23.562Z,32.20
2023-02-18T18:56:02.779Z,25.60
2023-02-18T18:58:38.916Z,29.33
2023-02-18T19:01:21.207Z,34.33
2023-02-18T19:03:59.885Z,28.17
2023-02-18T19:06:36.576Z,25.23
2023-02-18T19:09:12.906Z,29.63
2023-02-18T19:11:48.096Z,29.47
2023-02-18T19:14:23.896Z,20.30
2023-02-18T19:16:59.469Z,31.30
2023-02-18T19:19:37.543Z,24.87
2023-02-18T19:22:13.089Z,34.73
2023-02-18T19:24:48.712Z,32.47
2023-02-18T19:27:24.538Z,32.87
2023-02-18T19:30:00.358Z,29.63
2023-02-18T19:32:36.026Z,28.97
2023-02-18T19:35:13.763Z,26.37
2023-02-18T19:37:49.204Z,30.87
2023-02-18T19:40:26.196Z,26.37
2023-02-18T19:43:01.315Z,28.77
2023-02-18T19:45:36.204Z,27.37
2023-02-18T19:48:11.482Z,25.70
2023-02-18T19:50:48.763Z,22.93
2023-02-18T19:53:23.716Z,25.67
2023-02-18T19:56:03.927Z,22.30
2023-02-18T19:58:38.795Z,24.00
2023-02-18T20:01:17.693Z,27.77
2023-02-18T20:03:52.811Z,23.93
2023-02-18T20:06:31.938Z,19.97
2023-02-18T20:09:07.150Z,25.27
2023-02-18T20:11:42.399Z,23.83
2023-02-18T20:14:19.311Z,22.30
2023-02-18T20:16:54.471Z,25.37
2023-02-18T20:19:30.387Z,26.23
2023-02-18T20:22:08.702Z,27.90
2023-02-18T20:24:44.011Z,22.30
2023-02-18T20:27:19.124Z,17.47
2023-02-18T20:29:54.310Z,28.17
2023-02-18T20:32:28.478Z,28.50
2023-02-18T20:35:02.726Z,20.03
2023-02-18T20:37:38.920Z,23.70
2023-02-18T20:40:13.612Z,23.80
2023-02-18T20:42:48.022Z,23.63
2023-02-18T20:45:22.241Z,20.07
2023-02-18T20:47:56.135Z,24.63
2023-02-18T20:50:30.150Z,21.90
2023-02-18T20:53:06.447Z,23.97
2023-02-18T20:55:40.311Z,23.70
2023-02-18T20:58:14.462Z,16.47
2023-02-18T21:00:48.135Z,22.97
2023-02-18T21:03:21.709Z,17.97
2023-02-18T21:05:59.851Z,26.73
2023-02-18T21:08:35.480Z,21.40
2023-02-18T21:11:12.078Z,21.87
2023-02-18T21:13:48.605Z,19.80
2023-02-18T21:16:24.168Z,18.83
2023-02-18T21:18:59.056Z,19.80
2023-02-18T21:21:32.304Z,21.47
2023-02-18T21:24:07.425Z,23.73
2023-02-18T21:26:41.444Z,23.37
2023-02-18T21:29:16.766Z,20.67
2023-02-18T21:31:50.979Z,26.73
2023-02-18T21:37:17.664Z,26.67
2023-02-18T21:39:53.390Z,29.13
2023-02-18T21:42:26.977Z,25.40
2023-02-18T21:45:01.274Z,24.77
2023-02-18T21:47:35.005Z,26.50
2023-02-18T21:50:09.586Z,18.50
2023-02-18T21:52:43.087Z,21.43
2023-02-18T21:55:19.538Z,28.27
2023-02-18T21:57:53.225Z,23.53
2023-02-18T22:00:27.257Z,26.87
2023-02-18T22:03:00.791Z,30.87
2023-02-18T22:05:34.178Z,20.50
2023-02-18T22:08:08.008Z,24.37
2023-02-18T22:10:43.764Z,30.27
2023-02-18T22:13:17.303Z,28.43
2023-02-18T22:16:00.120Z,31.43
2023-02-18T22:18:36.461Z,39.43
2023-02-18T22:21:12.071Z,40.80
2023-02-18T22:23:46.770Z,36.50
2023-02-18T22:26:23.722Z,45.43
2023-02-18T22:28:58.618Z,39.73
2023-02-18T22:31:34.808Z,38.73
2023-02-18T22:34:09.672Z,41.03
2023-02-18T22:36:44.353Z,54.27
2023-02-18T22:39:20.622Z,54.63
2023-02-18T22:41:56.841Z,46.03
2023-02-18T22:44:32.005Z,54.00
2023-02-18T22:47:06.841Z,49.03
2023-02-18T22:49:41.426Z,52.07
2023-02-18T22:52:17.233Z,44.40
2023-02-18T22:54:53.464Z,51.13
2023-02-18T22:57:32.660Z,40.40
2023-02-18T23:00:10.274Z,43.33
2023-02-18T23:02:45.784Z,49.00
2023-02-18T23:05:20.626Z,47.40
2023-02-18T23:07:56.193Z,39.60
2023-02-18T23:10:31.091Z,41.93
2023-02-18T23:13:07.624Z,50.47
2023-02-18T23:15:42.538Z,38.77
2023-02-18T23:18:18.323Z,49.63
2023-02-18T23:21:09.525Z,43.80
2023-02-18T23:23:45.389Z,39.77
2023-02-18T23:26:21.244Z,38.33
2023-02-18T23:28:58.512Z,41.77
2023-02-18T23:31:34.134Z,44.63
2023-02-18T23:34:11.088Z,45.50
2023-02-18T23:36:48.618Z,45.03
2023-02-18T23:39:25.393Z,42.93
2023-02-18T23:42:00.992Z,34.97
2023-02-18T23:44:38.937Z,42.93
2023-02-18T23:47:13.164Z,46.37
2023-02-18T23:49:48.387Z,40.90
2023-02-18T23:52:24.123Z,46.83
2023-02-18T23:54:59.675Z,41.67
2023-02-18T23:57:37.386Z,42.40
